メインページ
METAR-TAF:

METAR-TAF

空港 :

ミネアポリス, ミネソタ州, アメリカ合衆国

ミネアポリス・セントポール国際空港

緯度: 44-52-59N, 経度: 093-13-44W, 海抜: 256m

現時点の気象観測

当レポートは27分前の22:53(UTC)に作成
西/南西の風 8kt
気温 21°C
湿度 46%
気圧 1011 hPa
視程: 16.1km
高度12000ftの雲は散在している
高度15000ftの千切れ雲あり

METAR: KMSP 272253Z 24008KT 10SM SCT120 BKN150 21/09 A2986 RMK AO2 SLP110 T02110094

時間: 18:20 (23:20 UTC)

予報

当レポートは2時間34分前の20:46(UTC)に作成
予報は27日の 21時(UTC)から 28日の 24時(UTC)まで有効
西/南西の風 7kt
視程: 10km
高度10000ftの千切れ雲あり
28日の 0100時(UTC)から
南西の風 5kt
視程: 10km
高度20000ftの千切れ雲あり
28日の 1500時(UTC)から
西の風 10kt
視程: 10km
高度4000ftの雲は散在している
28日の 1900時(UTC)から
西/北西の風 14kt、最大22ktの突風を伴う
視程: 10km
高度5000ftの雲は散在している

TAF: KMSP 272046Z 2721/2824 25007KT P6SM BKN100 FM280100 22005KT P6SM BKN200 FM281500 28010KT P6SM SCT040 FM281900 29014G22KT P6SM SCT050

4,000以上の空港の気象観測と天気予報(METAR報とTAF報)

利用可能な観測所は地図上に黄色い丸と赤い丸で示す。

丸の上にカーソルを重ねると観測所名を参照できる。

次にクリックすると気象観測と天気予報を参照できる。

マップの切り替え:黒色「×」印の緑ボタンをクリックして拡大、「-」印の緑ボタンをクリックして縮小、緑色の三角印をクリックして隣りの地図に切り替え


METAR-TAF: